Time;durP1;ratioP1;P1;durP2;ratioP2;P2;SDS_P1;SDS_P2;PMS_P1;PMS_P2;Temp;Humidity;BMP_temperature;BMP_pressure;BME280_temperature;BME280_humidity;BME280_pressure;Samples;Min_cycle;Max_cycle;Signal;HPM_P1;HPM_P2
2022/03/03 00:02:00;;;;;;;15.10;10.97;;;;;;;;;;5049817;28;20561;-70
2022/03/03 00:04:27;;;;;;;18.97;10.83;;;;;;;;;;5051578;28;20240;-71
2022/03/03 00:06:53;;;;;;;15.77;11.50;;;;;;;;;;5053211;28;20194;-71
2022/03/03 00:09:21;;;;;;;17.13;11.40;;;;;;;;;;5054471;28;20267;-71
2022/03/03 00:11:48;;;;;;;16.40;11.47;;;;;;;;;;5052344;28;20211;-71
2022/03/03 00:14:14;;;;;;;17.73;10.13;;;;;;;;;;5051729;28;20247;-71
2022/03/03 00:16:41;;;;;;;14.17;10.50;;;;;;;;;;5052072;28;20209;-70
2022/03/03 00:19:08;;;;;;;16.33;12.20;;;;;;;;;;5052967;28;20645;-71
2022/03/03 00:21:35;;;;;;;15.67;11.20;;;;;;;;;;5052234;28;20260;-70
2022/03/03 00:24:01;;;;;;;18.47;10.50;;;;;;;;;;5054408;28;20361;-70
2022/03/03 00:26:29;;;;;;;18.63;11.37;;;;;;;;;;5055085;28;20197;-70
2022/03/03 00:28:56;;;;;;;21.60;11.00;;;;;;;;;;5053593;28;20996;-70
2022/03/03 00:31:23;;;;;;;17.93;12.13;;;;;;;;;;5051308;28;20257;-70
2022/03/03 00:33:50;;;;;;;17.77;11.00;;;;;;;;;;5054368;28;20201;-70
2022/03/03 00:36:16;;;;;;;16.83;11.10;;;;;;;;;;5051697;28;20691;-70
2022/03/03 00:38:43;;;;;;;22.17;10.97;;;;;;;;;;5054154;28;20202;-70
2022/03/03 00:41:10;;;;;;;15.07;10.97;;;;;;;;;;5052129;28;20599;-70
2022/03/03 00:43:38;;;;;;;15.40;10.83;;;;;;;;;;5054852;28;20221;-70
2022/03/03 00:46:04;;;;;;;16.07;10.87;;;;;;;;;;5054110;28;20665;-70
2022/03/03 00:48:31;;;;;;;20.63;10.57;;;;;;;;;;5058376;28;20645;-70
2022/03/03 00:50:59;;;;;;;12.97;10.43;;;;;;;;;;5037168;28;20209;-71
2022/03/03 00:53:26;;;;;;;15.17;10.10;;;;;;;;;;5039043;28;20226;-71
2022/03/03 00:55:53;;;;;;;13.90;10.30;;;;;;;;;;5039732;28;20204;-70
2022/03/03 00:58:19;;;;;;;14.23;11.53;;;;;;;;;;5035955;28;20630;-70
2022/03/03 01:00:47;;;;;;;16.60;11.50;;;;;;;;;;5037273;28;20206;-71
2022/03/03 01:03:14;;;;;;;30.30;11.20;;;;;;;;;;5035576;28;20320;-71
2022/03/03 01:05:40;;;;;;;13.90;11.63;;;;;;;;;;5037038;28;20263;-71
2022/03/03 01:08:10;;;;;;;14.17;11.03;;;;;;;;;;5037613;28;20206;-70
2022/03/03 01:10:36;;;;;;;13.97;10.90;;;;;;;;;;5036897;28;20199;-70
2022/03/03 01:13:03;;;;;;;15.90;11.00;;;;;;;;;;5038877;28;20203;-70
2022/03/03 01:15:29;;;;;;;13.97;11.30;;;;;;;;;;5039679;28;20256;-70
2022/03/03 01:17:57;;;;;;;18.20;11.33;;;;;;;;;;5039366;28;20199;-71
2022/03/03 01:20:24;;;;;;;17.40;11.33;;;;;;;;;;5036548;28;20268;-70
2022/03/03 01:22:51;;;;;;;15.30;11.10;;;;;;;;;;5037333;28;20282;-70
2022/03/03 01:25:17;;;;;;;14.20;10.13;;;;;;;;;;5037555;28;20276;-70
2022/03/03 01:27:45;;;;;;;13.53;10.50;;;;;;;;;;5036799;28;20269;-70
2022/03/03 01:30:12;;;;;;;15.43;11.43;;;;;;;;;;5032343;28;20686;-70
2022/03/03 01:32:39;;;;;;;14.97;11.73;;;;;;;;;;5034392;28;20190;-70
2022/03/03 01:35:07;;;;;;;16.30;11.30;;;;;;;;;;5037738;28;20211;-70
2022/03/03 01:37:34;;;;;;;18.00;12.60;;;;;;;;;;5037145;28;21249;-70
2022/03/03 01:40:01;;;;;;;18.67;12.07;;;;;;;;;;5036253;28;20299;-70
2022/03/03 01:42:27;;;;;;;21.07;14.07;;;;;;;;;;5033799;28;20252;-69
2022/03/03 01:44:53;;;;;;;16.63;10.97;;;;;;;;;;5035469;28;20224;-70
2022/03/03 01:47:21;;;;;;;18.73;12.57;;;;;;;;;;5035584;28;20632;-70
2022/03/03 01:49:48;;;;;;;20.33;12.30;;;;;;;;;;5045479;28;20609;-69
2022/03/03 01:52:15;;;;;;;24.80;12.00;;;;;;;;;;5052419;28;20603;-69
2022/03/03 01:54:43;;;;;;;19.20;12.23;;;;;;;;;;5049694;28;20224;-70
2022/03/03 01:57:10;;;;;;;17.00;12.20;;;;;;;;;;5052594;28;20595;-71
2022/03/03 01:59:37;;;;;;;16.73;12.03;;;;;;;;;;5052374;28;20275;-71
2022/03/03 02:02:04;;;;;;;14.67;11.67;;;;;;;;;;5050301;28;20707;-71
2022/03/03 02:04:31;;;;;;;29.33;12.40;;;;;;;;;;5052576;28;20247;-71
2022/03/03 02:06:58;;;;;;;19.63;12.47;;;;;;;;;;5054261;28;20202;-71
2022/03/03 02:09:26;;;;;;;16.10;11.50;;;;;;;;;;5053854;28;20669;-71
2022/03/03 02:11:53;;;;;;;18.60;12.30;;;;;;;;;;5050789;28;20669;-71
2022/03/03 02:14:19;;;;;;;12.70;11.10;;;;;;;;;;5052548;28;20279;-70
2022/03/03 02:16:46;;;;;;;17.30;12.10;;;;;;;;;;5050905;28;20205;-70
2022/03/03 02:19:15;;;;;;;19.23;11.23;;;;;;;;;;5053657;28;20230;-69
2022/03/03 02:21:43;;;;;;;20.07;12.33;;;;;;;;;;5051761;28;20607;-70
2022/03/03 02:24:09;;;;;;;18.57;12.17;;;;;;;;;;5049685;28;20238;-70
2022/03/03 02:26:39;;;;;;;19.37;11.90;;;;;;;;;;5051368;28;20209;-70
2022/03/03 02:29:06;;;;;;;18.17;12.23;;;;;;;;;;5050668;28;20280;-71
2022/03/03 02:31:32;;;;;;;15.90;12.27;;;;;;;;;;5049944;28;20746;-70
2022/03/03 02:33:59;;;;;;;18.40;12.17;;;;;;;;;;5049881;28;20206;-71
2022/03/03 02:36:27;;;;;;;18.40;12.27;;;;;;;;;;5048863;28;20701;-71
2022/03/03 02:38:56;;;;;;;22.87;12.33;;;;;;;;;;5049462;28;20227;-71
2022/03/03 02:41:24;;;;;;;20.20;11.77;;;;;;;;;;5051212;28;20217;-72
2022/03/03 02:43:50;;;;;;;13.53;11.43;;;;;;;;;;5049733;28;20769;-71
2022/03/03 02:46:17;;;;;;;18.60;13.63;;;;;;;;;;5051051;28;20209;-72
2022/03/03 02:48:43;;;;;;;18.40;12.47;;;;;;;;;;5049858;28;20658;-71
2022/03/03 02:51:10;;;;;;;21.37;13.20;;;;;;;;;;5047031;28;20635;-72
2022/03/03 02:53:36;;;;;;;19.70;12.67;;;;;;;;;;5047186;28;20303;-71
2022/03/03 02:56:05;;;;;;;15.70;12.13;;;;;;;;;;5047458;28;20198;-71
2022/03/03 02:58:32;;;;;;;15.70;11.67;;;;;;;;;;5046427;28;20198;-71
2022/03/03 03:00:59;;;;;;;18.77;12.33;;;;;;;;;;5047513;28;20254;-70
2022/03/03 03:03:25;;;;;;;21.27;13.67;;;;;;;;;;5048330;28;20221;-70
2022/03/03 03:05:52;;;;;;;14.73;11.80;;;;;;;;;;5048743;28;20236;-70
2022/03/03 03:08:18;;;;;;;15.33;11.53;;;;;;;;;;5049109;28;20797;-70
2022/03/03 03:10:45;;;;;;;15.13;12.13;;;;;;;;;;5048695;28;20607;-70
2022/03/03 03:13:14;;;;;;;19.10;12.43;;;;;;;;;;5048053;28;20256;-70
2022/03/03 03:15:41;;;;;;;17.77;12.50;;;;;;;;;;5049883;28;20206;-71
2022/03/03 03:18:11;;;;;;;21.27;13.93;;;;;;;;;;5048385;28;20982;-70
2022/03/03 03:20:38;;;;;;;18.67;12.77;;;;;;;;;;5050291;28;20209;-70
2022/03/03 03:23:05;;;;;;;17.40;12.33;;;;;;;;;;5049512;28;20297;-70
2022/03/03 03:25:31;;;;;;;18.10;12.43;;;;;;;;;;5048825;28;20816;-70
2022/03/03 03:27:58;;;;;;;17.30;12.47;;;;;;;;;;5048701;28;20605;-71
2022/03/03 03:30:26;;;;;;;17.97;12.13;;;;;;;;;;5048667;28;20693;-71
2022/03/03 03:32:52;;;;;;;22.23;12.23;;;;;;;;;;5047670;28;20221;-70
2022/03/03 03:35:19;;;;;;;21.37;12.63;;;;;;;;;;5048550;28;20267;-70
2022/03/03 03:37:45;;;;;;;18.87;13.53;;;;;;;;;;5049111;28;20206;-71
2022/03/03 03:40:12;;;;;;;19.30;13.03;;;;;;;;;;5049258;28;20225;-72
2022/03/03 03:42:39;;;;;;;17.33;12.43;;;;;;;;;;5048226;28;20295;-72
2022/03/03 03:45:06;;;;;;;22.00;13.23;;;;;;;;;;5048188;28;20231;-72
2022/03/03 03:47:34;;;;;;;22.30;13.67;;;;;;;;;;5048548;28;21350;-71
2022/03/03 03:50:02;;;;;;;19.77;12.83;;;;;;;;;;5047194;28;20234;-71
2022/03/03 03:52:28;;;;;;;22.73;13.30;;;;;;;;;;5048361;28;20229;-70
2022/03/03 03:54:55;;;;;;;18.10;12.80;;;;;;;;;;5050157;28;20620;-71
2022/03/03 03:57:21;;;;;;;16.60;12.67;;;;;;;;;;5047579;28;20252;-71
2022/03/03 03:59:48;;;;;;;18.33;13.00;;;;;;;;;;5048382;28;20217;-71
2022/03/03 04:02:15;;;;;;;21.67;13.77;;;;;;;;;;5046519;28;20779;-71
2022/03/03 04:04:43;;;;;;;19.70;13.43;;;;;;;;;;5048775;28;20234;-70
2022/03/03 04:07:09;;;;;;;17.43;12.30;;;;;;;;;;5048036;28;20289;-71
2022/03/03 04:09:36;;;;;;;19.60;12.80;;;;;;;;;;5048174;28;20194;-72
2022/03/03 04:12:03;;;;;;;20.00;12.33;;;;;;;;;;5048109;28;20680;-71
2022/03/03 04:14:30;;;;;;;21.47;13.50;;;;;;;;;;5047113;28;20206;-70
2022/03/03 04:16:57;;;;;;;22.23;13.73;;;;;;;;;;5047535;28;20210;-70
2022/03/03 04:19:23;;;;;;;18.10;13.10;;;;;;;;;;5047857;28;20198;-69
2022/03/03 04:21:51;;;;;;;19.63;12.70;;;;;;;;;;5048230;28;20328;-70
2022/03/03 04:24:18;;;;;;;16.80;11.77;;;;;;;;;;5052400;28;20238;-71
2022/03/03 04:26:44;;;;;;;16.10;12.73;;;;;;;;;;5052708;28;20746;-70
2022/03/03 04:29:11;;;;;;;29.57;13.33;;;;;;;;;;5051090;28;20292;-70
2022/03/03 04:31:37;;;;;;;18.27;12.87;;;;;;;;;;5051123;28;20593;-70
2022/03/03 04:34:04;;;;;;;17.40;12.37;;;;;;;;;;5051453;28;20203;-71
2022/03/03 04:36:30;;;;;;;19.83;13.00;;;;;;;;;;5051951;28;20209;-70
2022/03/03 04:38:58;;;;;;;19.87;12.53;;;;;;;;;;5052720;28;20602;-72
2022/03/03 04:41:25;;;;;;;16.27;11.90;;;;;;;;;;5050554;28;20198;-71
2022/03/03 04:43:51;;;;;;;20.90;12.67;;;;;;;;;;5050543;28;20226;-71
2022/03/03 04:46:18;;;;;;;22.40;12.43;;;;;;;;;;5051194;28;20245;-71
2022/03/03 04:48:45;;;;;;;18.47;12.13;;;;;;;;;;5051242;28;20191;-70
2022/03/03 04:51:11;;;;;;;18.97;12.10;;;;;;;;;;5051910;28;20218;-70
2022/03/03 04:53:38;;;;;;;17.43;12.07;;;;;;;;;;5051905;28;20226;-71
2022/03/03 04:56:06;;;;;;;17.97;12.40;;;;;;;;;;5052020;28;20206;-71
2022/03/03 04:58:33;;;;;;;17.33;12.40;;;;;;;;;;5052841;28;20862;-71
2022/03/03 05:01:00;;;;;;;20.03;12.83;;;;;;;;;;5053435;28;20678;-71
2022/03/03 05:03:27;;;;;;;17.37;12.77;;;;;;;;;;5052785;28;20281;-72
2022/03/03 05:05:53;;;;;;;22.80;12.63;;;;;;;;;;5053956;28;20233;-71
2022/03/03 05:08:20;;;;;;;21.87;12.30;;;;;;;;;;5054071;28;20207;-71
2022/03/03 05:10:47;;;;;;;20.37;12.80;;;;;;;;;;5052971;28;20334;-71
2022/03/03 05:13:15;;;;;;;19.07;12.57;;;;;;;;;;5050119;28;20209;-71
2022/03/03 05:15:41;;;;;;;18.60;12.60;;;;;;;;;;5051515;28;20199;-71
2022/03/03 05:18:08;;;;;;;15.03;11.70;;;;;;;;;;5050914;28;20219;-72
2022/03/03 05:20:34;;;;;;;23.10;13.70;;;;;;;;;;5052298;28;20259;-71
2022/03/03 05:23:01;;;;;;;21.20;12.53;;;;;;;;;;5052345;28;21198;-71
2022/03/03 05:25:27;;;;;;;15.93;11.63;;;;;;;;;;5051399;28;20618;-71
2022/03/03 05:27:54;;;;;;;18.23;13.23;;;;;;;;;;5052937;28;20201;-70
2022/03/03 05:30:22;;;;;;;21.83;13.73;;;;;;;1.22;nan;94828.28;5053389;28;20441;-70
2022/03/03 05:32:49;;;;;;;15.60;11.77;;;;;;;1.34;nan;94823.25;5051865;28;20610;-71
2022/03/03 05:35:18;;;;;;;15.53;11.87;;;;;;;1.34;nan;94824.91;5054470;28;20569;-71
2022/03/03 05:37:46;;;;;;;18.33;12.27;;;;;;;1.23;nan;94834.13;5054085;28;20704;-71
2022/03/03 05:40:14;;;;;;;17.83;12.50;;;;;;;1.17;nan;94834.13;5054466;28;20609;-71
2022/03/03 05:42:41;;;;;;;20.27;12.43;;;;;;;1.01;nan;94833.28;5051409;28;20226;-70
2022/03/03 05:45:08;;;;;;;17.50;11.17;;;;;;;1.03;nan;94831.63;5050299;28;20230;-70
2022/03/03 05:47:37;;;;;;;16.33;11.97;;;;;;;1.14;nan;94831.63;5050278;28;20356;-70
2022/03/03 05:50:05;;;;;;;18.90;11.90;;;;;;;1.17;nan;94832.47;5052584;28;20230;-70
2022/03/03 05:52:32;;;;;;;19.20;12.30;;;;;;;1.27;nan;94839.09;5053758;28;20240;-70
2022/03/03 05:54:59;;;;;;;17.90;11.60;;;;;;;1.31;nan;94837.44;5055141;28;20758;-71
2022/03/03 05:57:34;;;;;;;19.67;11.73;;;;;;;1.28;nan;94829.94;5055279;28;20212;-71
2022/03/03 06:00:06;;;;;;;18.03;11.47;;;;;;;1.46;nan;94831.59;5053757;28;20274;-72
2022/03/03 06:02:33;;;;;;;17.47;11.40;;;;;;;1.36;nan;94839.09;5055438;28;20279;-72
2022/03/03 06:05:03;;;;;;;21.10;11.53;;;;;;;1.39;nan;94842.44;5053512;28;20230;-71
2022/03/03 06:07:35;;;;;;;24.27;12.77;;;;;;;1.45;nan;94844.94;5053960;28;20209;-71
2022/03/03 06:10:04;;;;;;;19.53;12.07;;;;;;;1.62;nan;94838.19;5055444;28;21065;-71
2022/03/03 06:12:39;;;;;;;18.70;11.53;;;;;;;1.70;nan;94836.53;5054620;28;20280;-71
2022/03/03 06:15:07;;;;;;;35.60;18.47;;;;;;;1.69;nan;94834.84;5053908;28;20204;-72
2022/03/03 06:17:35;;;;;;;22.40;13.07;;;;;;;1.69;nan;94829.84;5054014;28;20259;-71
2022/03/03 06:20:04;;;;;;;27.23;14.40;;;;;;;1.90;nan;94829.75;5057192;28;20279;-70
2022/03/03 06:22:31;;;;;;;15.03;11.40;;;;;;;2.09;nan;94824.66;5053853;28;20280;-72
2022/03/03 06:24:58;;;;;;;19.13;10.97;;;;;;;2.60;nan;94828.53;5053882;28;20240;-71
2022/03/03 06:27:26;;;;;;;17.97;12.03;;;;;;;2.93;nan;94817.41;5053204;28;20263;-72
2022/03/03 06:29:55;;;;;;;19.43;11.20;;;;;;;3.08;nan;94823.13;5055062;28;20281;-71
2022/03/03 06:32:22;;;;;;;17.50;10.80;;;;;;;3.20;nan;94822.22;5054055;28;20206;-71
2022/03/03 06:34:49;;;;;;;13.07;10.47;;;;;;;2.81;nan;94820.00;5051826;28;20200;-71
2022/03/03 06:37:17;;;;;;;32.33;11.07;;;;;;;2.78;nan;94827.56;5054211;28;20247;-71
2022/03/03 06:39:44;;;;;;;25.03;11.03;;;;;;;2.65;nan;94815.13;5053038;28;20210;-71
2022/03/03 06:42:11;;;;;;;13.60;11.10;;;;;;;2.76;nan;94826.75;5054230;28;20202;-71
2022/03/03 06:44:37;;;;;;;16.70;10.60;;;;;;;2.65;nan;94827.66;5053842;28;20225;-70
2022/03/03 06:47:04;;;;;;;23.03;12.07;;;;;;;2.58;nan;94826.03;5053830;28;20202;-71
2022/03/03 06:49:31;;;;;;;18.70;11.07;;;;;;;2.60;nan;94829.38;5050520;28;20260;-70
2022/03/03 06:51:59;;;;;;;25.73;15.73;;;;;;;2.74;nan;94839.28;5048753;28;20237;-70
2022/03/03 06:54:27;;;;;;;22.07;12.43;;;;;;;2.78;nan;94840.09;5047803;28;20209;-71
2022/03/03 06:56:58;;;;;;;19.13;11.20;;;;;;;2.69;nan;94836.84;5048745;28;20198;-73
2022/03/03 06:59:27;;;;;;;14.00;10.13;;;;;;;2.40;nan;94836.19;5048440;28;20190;-71
2022/03/03 07:01:55;;;;;;;16.03;11.20;;;;;;;2.46;nan;94838.66;5047383;28;20293;-71
2022/03/03 07:04:24;;;;;;;19.20;10.20;;;;;;;2.48;nan;94829.44;5048114;28;20316;-72
2022/03/03 07:06:54;;;;;;;17.27;11.57;;;;;;;2.56;nan;94842.78;5048623;28;20198;-69
2022/03/03 07:09:21;;;;;;;17.87;10.33;;;;;;;3.16;nan;94834.78;5049479;28;20283;-71
2022/03/03 07:11:50;;;;;;;20.43;11.00;;;;;;;4.30;nan;94841.06;5047660;28;20256;-71
2022/03/03 07:14:18;;;;;;;27.57;11.53;;;;;;;4.45;nan;94843.41;5048164;28;20236;-71
2022/03/03 07:16:46;;;;;;;13.30;9.27;;;;;;;5.57;nan;94832.38;5048270;28;20214;-72
2022/03/03 07:19:35;;;;;;;22.77;11.77;;;;;;;7.60;nan;94831.31;5047359;28;20206;-71
2022/03/03 07:22:09;;;;;;;20.60;11.13;;;;;;;8.51;nan;94823.75;5047355;28;20268;-71
2022/03/03 07:24:44;;;;;;;58.63;25.05;;;;;;;8.88;nan;94817.59;5046414;28;20210;-70
2022/03/03 07:27:15;;;;;;;28.55;14.25;;;;;;;;;;5046368;28;20204;-70
2022/03/03 07:29:43;;;;;;;22.88;12.88;;;;;;;;;;5047535;28;20213;-70
2022/03/03 07:32:10;;;;;;;21.27;11.02;;;;;;;;;;5048268;28;20213;-71
2022/03/03 07:34:39;;;;;;;13.38;10.40;;;;;;;;;;5046558;28;20214;-71
2022/03/03 07:37:07;;;;;;;17.42;11.25;;;;;;;;;;5047931;28;20203;-73
2022/03/03 07:39:38;;;;;;;15.73;11.00;;;;;;;;;;5049256;28;20292;-73
2022/03/03 07:42:05;;;;;;;13.77;10.77;;;;;;;;;;5047792;28;20203;-72
2022/03/03 07:44:34;;;;;;;18.50;10.50;;;;;;;;;;5047636;28;20638;-72
2022/03/03 07:47:01;;;;;;;11.45;9.63;;;;;;;;;;5046288;28;20213;-72
2022/03/03 07:49:28;;;;;;;15.65;10.15;;;;;;;;;;4987397;28;1752669;-71
2022/03/03 07:51:54;;;;;;;23.63;13.32;;;;;;;;;;5051290;28;20700;-71
2022/03/03 07:54:21;;;;;;;15.35;11.18;;;;;;;;;;5050250;28;20532;-71
2022/03/03 07:56:49;;;;;;;21.88;10.90;;;;;;;;;;5051698;28;20207;-73
2022/03/03 07:59:18;;;;;;;19.92;10.77;;;;;;;;;;5051698;28;20292;-73
2022/03/03 08:01:48;;;;;;;17.80;10.93;;;;;;;;;;5051138;28;20643;-72
2022/03/03 08:04:15;;;;;;;22.10;11.57;;;;;;;;;;5051765;28;20892;-71
2022/03/03 08:06:44;;;;;;;15.40;10.00;;;;;;;;;;5051956;28;20242;-72
2022/03/03 08:09:11;;;;;;;18.20;11.82;;;;;;;;;;5051461;28;20214;-71
2022/03/03 08:11:40;;;;;;;16.40;10.77;;;;;;;;;;5052357;28;20209;-72
2022/03/03 08:14:07;;;;;;;33.73;15.97;;;;;;;;;;5049916;28;20206;-71
2022/03/03 08:16:35;;;;;;;19.97;12.33;;;;;;;;;;5051619;28;20198;-71
2022/03/03 08:19:04;;;;;;;19.23;11.87;;;;;;;;;;5050731;28;20277;-73
2022/03/03 08:21:32;;;;;;;20.37;12.73;;;;;;;;;;5050992;28;20296;-71
2022/03/03 08:24:00;;;;;;;19.38;12.13;;;;;;;;;;5050218;28;20711;-71
2022/03/03 08:26:27;;;;;;;14.73;10.93;;;;;;;;;;5050714;28;20238;-71
2022/03/03 08:28:54;;;;;;;14.37;10.97;;;;;;;;;;5051523;28;21327;-72
2022/03/03 08:31:25;;;;;;;22.35;10.75;;;;;;;;;;5052660;28;20201;-71
2022/03/03 08:33:54;;;;;;;18.00;12.38;;;;;;;;;;5051348;28;21153;-71
2022/03/03 08:36:26;;;;;;;20.33;11.80;;;;;;;;;;5052456;28;20206;-71
2022/03/03 08:38:54;;;;;;;16.55;11.35;;;;;;;;;;5051734;28;20253;-71
2022/03/03 08:41:21;;;;;;;15.85;10.65;;;;;;;;;;5033690;28;20210;-72
2022/03/03 08:43:49;;;;;;;21.23;10.68;;;;;;;;;;5050517;28;20264;-71
2022/03/03 08:46:17;;;;;;;14.23;10.57;;;;;;;;;;5050310;28;20230;-71
2022/03/03 08:48:44;;;;;;;16.13;10.90;;;;;;;;;;5051211;28;20837;-70
2022/03/03 08:51:13;;;;;;;20.25;11.70;;;;;;;;;;5053128;28;20205;-70
2022/03/03 08:53:42;;;;;;;18.53;10.87;;;;;;;;;;5053152;28;20222;-71
2022/03/03 08:56:08;;;;;;;14.93;10.10;;;;;;;;;;5052870;28;20201;-72
2022/03/03 08:58:35;;;;;;;19.40;9.20;;;;;;;4.23;nan;94940.91;5054762;28;20202;-73
2022/03/03 09:01:02;;;;;;;13.40;9.82;;;;;;;;;;5055028;28;20668;-72
2022/03/03 09:03:28;;;;;;;15.15;11.20;;;;;;;;;;5052293;28;20202;-73
2022/03/03 09:05:56;;;;;;;16.15;10.13;;;;;;;;;;5054167;28;20226;-73
2022/03/03 09:08:23;;;;;;;13.93;10.83;;;;;;;;;;5056008;28;20719;-72
2022/03/03 09:10:51;;;;;;;15.98;10.90;;;;;;;;;;5055962;28;20206;-71
2022/03/03 09:13:18;;;;;;;16.90;10.93;;;;;;;;;;5054733;28;20225;-72
2022/03/03 09:15:44;;;;;;;14.32;9.82;;;;;;;;;;5056196;28;20671;-70
2022/03/03 09:18:11;;;;;;;14.30;10.10;;;;;;;;;;5057240;28;20206;-70
2022/03/03 09:20:37;;;;;;;11.40;9.93;;;;;;;;;;5057828;28;20774;-73
2022/03/03 09:23:04;;;;;;;15.35;10.15;;;;;;;;;;5055533;28;20178;-71
2022/03/03 09:25:36;;;;;;;18.03;10.27;;;;;;;;;;5057074;28;20230;-71
2022/03/03 09:28:05;;;;;;;14.02;10.45;;;;;;;;;;5058047;28;20221;-72
2022/03/03 09:30:32;;;;;;;14.95;10.75;;;;;;;;;;5058010;28;20510;-72
2022/03/03 09:32:59;;;;;;;20.13;10.60;;;;;;;;;;5057023;28;20201;-70
2022/03/03 09:35:26;;;;;;;22.77;11.23;;;;;;;;;;5059557;28;20218;-71
2022/03/03 09:37:53;;;;;;;15.38;10.98;;;;;;;;;;5057594;28;20225;-71
2022/03/03 09:40:20;;;;;;;16.53;10.57;;;;;;;;;;5057442;28;20202;-72
2022/03/03 09:42:55;;;;;;;12.80;10.03;;;;;;;;;;5057182;28;20202;-71
2022/03/03 09:45:23;;;;;;;15.43;10.90;;;;;;;;;;5055441;28;20339;-71
2022/03/03 09:47:51;;;;;;;15.20;10.43;;;;;;;;;;5056181;28;20197;-70
2022/03/03 09:50:18;;;;;;;16.63;10.47;;;;;;;;;;5055197;28;20329;-70
2022/03/03 09:52:45;;;;;;;17.00;10.10;;;;;;;;;;5052241;28;20221;-74
2022/03/03 09:55:12;;;;;;;18.92;10.95;;;;;;;;;;5051159;28;20619;-71
2022/03/03 09:57:38;;;;;;;16.87;10.73;;;;;;;;;;5050717;28;20297;-71
2022/03/03 10:00:07;;;;;;;20.23;12.57;;;;;;;;;;5051801;28;20622;-71
2022/03/03 10:02:53;;;;;;;24.40;16.20;;;;;;;;;;5050593;28;20771;-71
2022/03/03 10:05:28;;;;;;;16.67;10.30;;;;;;;;;;5050362;28;20210;-72
2022/03/03 10:08:00;;;;;;;17.73;11.63;;;;;;;;;;5052307;28;20211;-71
2022/03/03 10:10:26;;;;;;;13.18;9.93;;;;;;;;;;5050584;28;20293;-72
2022/03/03 10:12:56;;;;;;;13.15;10.32;;;;;;;;;;5050265;28;21485;-71
2022/03/03 10:15:25;;;;;;;20.30;11.98;;;;;;;;;;5049702;28;20202;-71
2022/03/03 10:17:57;;;;;;;12.33;9.50;;;;;;;;;;5050553;28;20198;-73
2022/03/03 10:20:24;;;;;;;12.30;9.57;;;;;;;;;;5050035;28;20206;-70
2022/03/03 10:22:57;;;;;;;15.50;9.50;;;;;;;;;;5051009;28;20689;-72
2022/03/03 10:25:33;;;;;;;16.10;10.65;;;;;;;;;;5050351;28;20217;-72
2022/03/03 10:28:06;;;;;;;14.90;10.27;;;;;;;;;;5050768;28;20202;-70
2022/03/03 10:30:47;;;;;;;15.93;8.82;;;;;;;;;;5050792;28;20211;-70
2022/03/03 10:33:18;;;;;;;13.40;10.98;;;;;;;;;;5046929;28;20202;-72
2022/03/03 10:35:58;;;;;;;13.73;10.38;;;;;;;;;;5047526;28;20202;-72
2022/03/03 10:38:24;;;;;;;10.73;9.03;;;;;;;;;;5045857;28;20214;-72
2022/03/03 10:40:51;;;;;;;11.18;9.45;;;;;;;;;;5047368;28;20198;-71
2022/03/03 10:43:18;;;;;;;17.13;10.40;;;;;;;;;;5047643;28;20213;-71
2022/03/03 10:45:54;;;;;;;14.40;10.40;;;;;;;;;;5047059;28;20241;-72
2022/03/03 10:48:23;;;;;;;18.60;9.85;;;;;;;;;;5046992;28;20693;-71
2022/03/03 10:50:51;;;;;;;14.38;9.27;;;;;;;;;;5051019;28;20225;-70
2022/03/03 10:53:18;;;;;;;15.55;9.57;;;;;;;;;;5051952;28;20216;-71
2022/03/03 10:55:59;;;;;;;14.98;9.48;;;;;;;;;;5047526;28;20205;-71
2022/03/03 10:58:43;;;;;;;14.50;10.50;;;;;;;;;;5051057;28;20760;-72
2022/03/03 11:01:10;;;;;;;14.30;9.47;;;;;;;;;;5050412;28;20275;-71
2022/03/03 11:03:39;;;;;;;15.73;10.48;;;;;;;;;;5051912;28;20688;-72
2022/03/03 11:06:06;;;;;;;19.05;10.05;;;;;;;;;;5034083;28;20325;-73
2022/03/03 11:08:33;;;;;;;15.53;10.00;;;;;;;;;;5048940;28;20870;-73
2022/03/03 11:11:00;;;;;;;17.70;10.00;;;;;;;;;;5049953;28;20532;-73
2022/03/03 11:13:27;;;;;;;10.73;8.40;;;;;;;;;;5050634;28;20291;-72
2022/03/03 11:15:53;;;;;;;10.85;8.88;;;;;;;;;;5051034;28;20210;-71
2022/03/03 11:18:21;;;;;;;16.52;10.18;;;;;;;;;;5049888;28;20205;-71
2022/03/03 11:20:48;;;;;;;11.65;8.82;;;;;;;;;;5050695;28;20206;-72
2022/03/03 11:23:15;;;;;;;11.45;9.18;;;;;;;;;;5050964;28;20195;-71
2022/03/03 11:25:47;;;;;;;17.20;10.90;;;;;;;;;;5047153;28;20217;-71
2022/03/03 11:28:15;;;;;;;13.10;9.40;;;;;;;;;;5049944;28;20201;-71
2022/03/03 11:30:43;;;;;;;13.93;9.45;;;;;;;;;;5048958;28;20203;-71
2022/03/03 11:33:20;;;;;;;23.43;13.40;;;;;;;;;;5050377;28;20206;-70
2022/03/03 11:35:48;;;;;;;12.80;10.27;;;;;;;;;;5048736;28;20221;-71
2022/03/03 11:38:16;;;;;;;10.80;8.50;;;;;;;;;;5049325;28;20297;-71
2022/03/03 11:40:53;;;;;;;13.38;8.15;;;;;;;;;;5048674;28;20209;-71
2022/03/03 11:43:19;;;;;;;13.07;8.20;;;;;;;;;;5046944;28;20198;-71
2022/03/03 11:45:50;;;;;;;13.90;9.35;;;;;;;;;;5048277;28;20275;-71
2022/03/03 11:48:16;;;;;;;13.25;9.93;;;;;;;;;;5047275;28;20206;-72
2022/03/03 11:50:43;;;;;;;13.43;10.07;;;;;;;;;;5049724;28;20253;-73
2022/03/03 11:53:21;;;;;;;14.03;10.60;;;;;;;;;;5049545;28;20226;-70
2022/03/03 11:55:49;;;;;;;13.80;9.87;;;;;;;;;;5049397;28;20197;-72
2022/03/03 11:58:16;;;;;;;15.53;10.30;;;;;;;;;;5049395;28;20198;-71
2022/03/03 12:00:43;;;;;;;12.53;8.47;;;;;;;;;;5049209;28;20197;-71
2022/03/03 12:03:11;;;;;;;13.90;10.23;;;;;;;;;;5049089;28;20225;-72
2022/03/03 12:05:39;;;;;;;11.35;8.48;;;;;;;;;;5050291;28;20689;-72
2022/03/03 12:08:06;;;;;;;13.60;8.77;;;;;;;;;;5049289;28;21194;-71
2022/03/03 12:10:36;;;;;;;13.43;9.18;;;;;;;;;;5050341;28;20202;-73
2022/03/03 12:13:21;;;;;;;11.73;9.23;;;;;;;;;;5049751;28;20260;-71
2022/03/03 12:16:11;;;;;;;13.43;8.93;;;;;;;;;;5048168;28;20302;-73
2022/03/03 12:18:38;;;;;;;16.92;9.05;;;;;;;;;;5048802;28;20206;-71
2022/03/03 12:21:23;;;;;;;12.48;8.90;;;;;;;;;;5048661;28;20224;-71
2022/03/03 12:23:50;;;;;;;15.30;10.82;;;;;;;;;;5048577;28;20438;-72
2022/03/03 12:26:18;;;;;;;10.48;8.70;;;;;;;;;;5048722;28;20234;-72
2022/03/03 12:28:47;;;;;;;19.02;8.95;;;;;;;;;;5049273;28;20634;-71
2022/03/03 12:31:20;;;;;;;16.75;8.95;;;;;;;;;;5049090;28;20327;-71
2022/03/03 12:33:57;;;;;;;16.73;10.93;;;;;;;;;;5049589;28;20685;-71
2022/03/03 12:36:24;;;;;;;14.63;9.45;;;;;;;;;;5049678;28;20716;-71
2022/03/03 12:38:52;;;;;;;19.77;10.77;;;;;;;;;;5048641;28;20202;-71
2022/03/03 12:41:21;;;;;;;10.77;8.70;;;;;;;;;;5048684;28;20200;-70
2022/03/03 12:43:48;;;;;;;12.20;8.77;;;;;;;;;;5048965;28;20194;-71
2022/03/03 12:46:15;;;;;;;9.43;8.07;;;;;;;;;;5052395;28;20204;-73
2022/03/03 12:48:46;;;;;;;10.70;8.43;;;;;;;;;;5053772;28;20244;-72
2022/03/03 12:51:12;;;;;;;12.75;8.48;;;;;;;;;;5048628;28;20206;-71
2022/03/03 12:53:42;;;;;;;10.50;9.40;;;;;;;;;;5048457;28;20279;-72
2022/03/03 12:56:08;;;;;;;11.57;8.13;;;;;;;;;;5049888;28;20572;-71
2022/03/03 12:58:37;;;;;;;13.48;9.25;;;;;;;;;;5050472;28;20210;-71
2022/03/03 13:01:04;;;;;;;13.98;9.05;;;;;;;;;;5049720;28;20253;-71
2022/03/03 13:03:34;;;;;;;14.98;8.77;;;;;;;;;;5049702;28;20209;-71
2022/03/03 13:06:03;;;;;;;12.15;8.73;;;;;;;;;;5048479;28;20198;-71
2022/03/03 13:08:30;;;;;;;12.60;8.80;;;;;;;;;;5049875;28;20308;-71
2022/03/03 13:10:58;;;;;;;11.98;8.13;;;;;;;;;;5049698;28;20193;-71
2022/03/03 13:13:25;;;;;;;12.00;7.75;;;;;;;;;;5050575;28;20202;-75
2022/03/03 13:15:53;;;;;;;11.75;8.82;;;;;;;;;;5050394;28;20248;-71
2022/03/03 13:18:21;;;;;;;11.38;7.85;;;;;;;;;;5049962;28;20687;-71
2022/03/03 13:20:54;;;;;;;10.77;9.10;;;;;;;;;;5049029;28;20207;-73
2022/03/03 13:23:20;;;;;;;11.55;9.00;;;;;;;;;;5049296;28;20205;-70
2022/03/03 13:26:02;;;;;;;13.75;8.85;;;;;;;;;;5049746;28;20289;-72
2022/03/03 13:28:29;;;;;;;11.35;9.27;;;;;;;;;;5048789;28;20328;-70
2022/03/03 13:31:02;;;;;;;12.00;9.25;;;;;;;;;;5048537;28;20199;-71
2022/03/03 13:33:40;;;;;;;10.80;8.52;;;;;;;;;;5049063;28;20217;-72
2022/03/03 13:36:11;;;;;;;9.45;8.55;;;;;;;;;;5048333;28;20210;-71
2022/03/03 13:38:39;;;;;;;13.88;9.07;;;;;;;;;;5048689;28;20218;-72
2022/03/03 13:41:20;;;;;;;12.70;8.38;;;;;;;;;;5047497;28;20289;-74
2022/03/03 13:43:46;;;;;;;11.52;9.18;;;;;;;;;;5045490;28;20279;-71
2022/03/03 13:46:28;;;;;;;13.05;8.38;;;;;;;;;;5030913;28;20883;-72
2022/03/03 13:48:56;;;;;;;11.27;8.00;;;;;;;;;;5048372;28;20241;-71
2022/03/03 13:51:23;;;;;;;13.48;9.00;;;;;;;;;;5049731;28;21472;-72
2022/03/03 13:53:56;;;;;;;9.95;7.97;;;;;;;;;;5046811;28;20650;-71
2022/03/03 13:56:26;;;;;;;8.75;7.85;;;;;;;;;;5048039;28;20291;-72
2022/03/03 13:59:04;;;;;;;9.43;7.30;;;;;;;;;;5049219;28;20289;-72
2022/03/03 14:01:33;;;;;;;15.98;8.18;;;;;;;;;;5048723;28;20190;-72